Time;durP1;ratioP1;P1;durP2;ratioP2;P2;SDS_P1;SDS_P2;PMS_P1;PMS_P2;Temp;Humidity;BMP_temperature;BMP_pressure;BME280_temperature;BME280_humidity;BME280_pressure;Samples;Min_cycle;Max_cycle;Signal;HPM_P1;HPM_P2
2021/06/24 00:01:14;;;;;;;;;11.75;10.00;;;;;;;;4969448;28;8972;-88
2021/06/24 00:03:41;;;;;;;;;11.00;7.25;;;;;;;;4966340;28;8854;-89
2021/06/24 00:06:08;;;;;;;;;9.50;9.50;;;;;;;;4968608;28;8975;-90
2021/06/24 00:08:36;;;;;;;;;9.75;9.75;;;;;;;;4970053;28;9035;-90
2021/06/24 00:11:08;;;;;;;;;8.25;8.25;;;;;;;;4965309;28;8907;-90
2021/06/24 00:13:36;;;;;;;;;7.25;7.25;;;;;;;;4966551;28;8881;-88
2021/06/24 00:16:03;;;;;;;;;7.25;7.00;;;;;;;;4965998;28;8860;-87
2021/06/24 00:18:31;;;;;;;;;11.00;11.00;;;;;;;;4964346;28;8885;-88
2021/06/24 00:20:58;;;;;;;;;12.25;12.25;;;;;;;;4966485;28;8877;-87
2021/06/24 00:23:26;;;;;;;;;11.25;11.25;;;;;;;;4972150;28;9011;-89
2021/06/24 00:25:55;;;;;;;;;8.25;8.25;;;;;;;;4967514;28;8959;-89
2021/06/24 00:28:27;;;;;;;;;9.00;9.00;;;;;;;;4964803;28;8980;-88
2021/06/24 00:30:54;;;;;;;;;7.25;7.25;;;;;;;;4965872;28;8960;-86
2021/06/24 00:33:21;;;;;;;;;9.00;8.00;;;;;;;;4966374;28;8865;-86
2021/06/24 00:35:49;;;;;;;;;12.00;10.00;;;;;;;;4966936;28;8889;-85
2021/06/24 00:38:17;;;;;;;;;10.00;10.00;;;;;;;;4965733;28;8857;-87
2021/06/24 00:40:45;;;;;;;;;8.25;8.25;;;;;;;;4964707;28;9638;-85
2021/06/24 00:43:14;;;;;;;;;9.00;9.00;;;;;;;;4966405;28;8877;-85
2021/06/24 00:45:43;;;;;;;;;10.00;10.00;;;;;;;;4964721;28;8938;-86
2021/06/24 00:48:12;;;;;;;;;7.75;7.75;;;;;;;;4967505;28;8991;-86
2021/06/24 00:50:41;;;;;;;;;12.50;12.50;;;;;;;;4974349;28;8873;-86
2021/06/24 00:53:10;;;;;;;;;10.00;7.75;;;;;;;;4965021;28;9020;-86
2021/06/24 00:55:44;;;;;;;;;6.00;4.75;;;;;;;;4966269;28;8885;-85
2021/06/24 00:58:13;;;;;;;;;9.25;9.25;;;;;;;;4964528;28;8873;-86
2021/06/24 01:00:43;;;;;;;;;7.75;7.75;;;;;;;;4965359;28;8911;-86
2021/06/24 01:03:10;;;;;;;;;8.25;6.25;;;;;;;;4964026;28;8980;-85
2021/06/24 01:05:38;;;;;;;;;8.25;8.25;;;;;;;;4965588;28;8869;-80
2021/06/24 01:08:06;;;;;;;;;11.00;11.00;;;;;;;;4967444;28;8980;-82
2021/06/24 01:10:34;;;;;;;;;10.00;10.00;;;;;;;;4965916;28;8881;-78
2021/06/24 01:13:02;;;;;;;;;10.50;7.50;;;;;;;;4965371;28;8880;-83
2021/06/24 01:15:29;;;;;;;;;11.75;10.00;;;;;;;;4963568;28;8869;-85
2021/06/24 01:17:58;;;;;;;;;12.50;10.50;;;;;;;;4965075;28;9716;-86
2021/06/24 01:20:26;;;;;;;;;11.75;9.75;;;;;;;;4964087;28;8881;-84
2021/06/24 01:22:54;;;;;;;;;11.50;8.75;;;;;;;;4962327;28;8851;-84
2021/06/24 01:25:23;;;;;;;;;8.50;6.75;;;;;;;;4964545;28;8893;-83
2021/06/24 01:27:56;;;;;;;;;7.25;7.25;;;;;;;;4967360;28;8903;-82
2021/06/24 01:30:23;;;;;;;;;11.75;9.00;;;;;;;;4964496;28;8849;-86
2021/06/24 01:32:51;;;;;;;;;9.75;9.50;;;;;;;;4965704;28;8890;-85
2021/06/24 01:35:21;;;;;;;;;11.50;10.25;;;;;;;;4963287;28;8865;-85
2021/06/24 01:37:49;;;;;;;;;8.50;6.75;;;;;;;;4966568;28;8843;-82
2021/06/24 01:40:17;;;;;;;;;9.50;9.50;;;;;;;;4972298;28;8861;-83
2021/06/24 01:42:45;;;;;;;;;7.25;7.25;;;;;;;;4965438;28;8853;-86
2021/06/24 01:45:13;;;;;;;;;10.00;10.00;;;;;;;;4962611;28;8891;-88
2021/06/24 01:47:40;;;;;;;;;8.25;8.25;;;;;;;;4969142;28;8877;-88
2021/06/24 01:50:10;;;;;;;;;10.50;8.50;;;;;;;;4963048;28;9051;-86
2021/06/24 01:52:40;;;;;;;;;10.75;9.50;;;;;;;;4964821;28;8881;-84
2021/06/24 01:55:08;;;;;;;;;11.50;10.00;;;;;;;;4964985;28;8895;-87
2021/06/24 01:57:36;;;;;;;;;9.75;9.00;;;;;;;;4964556;28;8988;-86
2021/06/24 02:00:08;;;;;;;;;11.50;11.50;;;;;;;;4962811;28;8853;-85
2021/06/24 02:02:35;;;;;;;;;9.25;9.00;;;;;;;;4963819;28;9609;-87
2021/06/24 02:05:03;;;;;;;;;9.25;8.25;;;;;;;;4964437;28;8857;-86
2021/06/24 02:07:30;;;;;;;;;10.00;8.00;;;;;;;;4964155;28;8870;-88
2021/06/24 02:09:58;;;;;;;;;12.00;9.00;;;;;;;;4964797;28;8873;-85
2021/06/24 02:12:25;;;;;;;;;10.00;8.00;;;;;;;;4962925;28;9082;-86
2021/06/24 02:14:52;;;;;;;;;8.00;8.00;;;;;;;;4964194;28;9078;-85
2021/06/24 02:17:21;;;;;;;;;11.00;9.25;;;;;;;;4963033;28;8865;-85
2021/06/24 02:19:48;;;;;;;;;9.50;8.25;;;;;;;;4963248;28;8907;-83
2021/06/24 02:22:17;;;;;;;;;10.00;10.00;;;;;;;;4962416;28;8975;-84
2021/06/24 02:24:44;;;;;;;;;11.33;11.33;;;;;;;;4962253;28;9074;-85
2021/06/24 02:27:12;;;;;;;;;13.00;11.75;;;;;;;;4964745;28;9708;-87
2021/06/24 02:29:39;;;;;;;;;10.67;10.00;;;;;;;;4964336;28;8909;-86
2021/06/24 02:32:06;;;;;;;;;11.00;8.67;;;;;;;;4963348;28;8944;-86
2021/06/24 02:34:37;;;;;;;;;10.00;10.00;;;;;;;;4961310;28;9079;-87
2021/06/24 02:37:04;;;;;;;;;10.00;10.00;;;;;;;;4964638;28;8978;-87
2021/06/24 02:39:32;;;;;;;;;10.50;10.50;;;;;;;;4964584;28;9046;-86
2021/06/24 02:41:59;;;;;;;;;12.00;11.33;;;;;;;;4963602;28;9674;-86
2021/06/24 02:44:27;;;;;;;;;12.00;10.00;;;;;;;;4961973;28;8999;-85
2021/06/24 02:46:54;;;;;;;;;8.67;5.33;;;;;;;;4961890;28;9708;-86
2021/06/24 02:49:22;;;;;;;;;13.50;10.50;;;;;;;;4965403;28;9047;-86
2021/06/24 02:51:50;;;;;;;;;9.50;9.25;;;;;;;;4966710;28;8895;-86
2021/06/24 02:54:19;;;;;;;;;15.25;12.75;;;;;;;;4965219;28;8897;-87
2021/06/24 02:56:46;;;;;;;;;10.75;10.00;;;;;;;;4964325;28;8972;-81
2021/06/24 02:59:14;;;;;;;;;12.25;8.50;;;;;;;;4961995;28;8907;-82
2021/06/24 03:01:41;;;;;;;;;10.50;10.50;;;;;;;;4965752;28;8853;-85
2021/06/24 03:04:09;;;;;;;;;11.25;10.00;;;;;;;;4962991;28;8873;-82
2021/06/24 03:06:36;;;;;;;;;10.00;10.00;;;;;;;;4964630;28;9667;-84
2021/06/24 03:09:06;;;;;;;;;10.25;9.00;;;;;;;;4963915;28;8981;-86
2021/06/24 03:11:33;;;;;;;;;11.33;9.33;;;;;;;;4964296;28;8885;-84
2021/06/24 03:14:00;;;;;;;;;12.33;12.33;;;;;;;;4967129;28;8972;-82
2021/06/24 03:16:28;;;;;;;;;8.75;8.75;;;;;;;;4966982;28;8951;-86
2021/06/24 03:18:55;;;;;;;;;10.00;10.00;;;;;;;;4967986;28;8878;-87
2021/06/24 03:21:22;;;;;;;;;7.00;7.00;;;;;;;;4968289;28;8887;-88
2021/06/24 03:23:50;;;;;;;;;11.00;11.00;;;;;;;;4968223;28;8997;-82
2021/06/24 03:26:19;;;;;;;;;13.33;10.33;;;;;;;;4966423;28;8969;-86
2021/06/24 03:28:46;;;;;;;;;10.00;10.00;;;;;;;;4968305;28;9138;-84
2021/06/24 03:31:14;;;;;;;;;10.33;10.33;;;;;;;;4966481;28;9066;-86
2021/06/24 03:33:41;;;;;;;;;9.00;8.50;;;;;;;;4965872;28;8969;-85
2021/06/24 03:36:08;;;;;;;;;11.25;9.75;;;;;;;;4967531;28;8857;-86
2021/06/24 03:38:36;;;;;;;;;12.25;10.75;;;;;;;;4965599;28;8897;-85
2021/06/24 03:41:03;;;;;;;;;11.00;9.75;;;;;;;;4966695;28;8885;-88
2021/06/24 03:43:32;;;;;;;;;11.00;11.00;;;;;;;;4965910;28;8877;-89
2021/06/24 03:45:59;;;;;;;;;11.00;9.67;;;;;;;;4967071;28;8895;-86
2021/06/24 03:48:27;;;;;;;;;10.25;9.75;;;;;;;;4966792;28;8971;-87
2021/06/24 03:50:54;;;;;;;;;11.75;9.00;;;;;;;;4966903;28;8857;-86
2021/06/24 03:53:21;;;;;;;;;14.25;12.25;;;;;;;;4967958;28;9007;-86
2021/06/24 03:55:49;;;;;;;;;11.25;10.00;;;;;;;;4966113;28;8882;-86
2021/06/24 03:58:16;;;;;;;;;11.75;11.00;;;;;;;;4966621;28;8889;-87
2021/06/24 04:00:47;;;;;;;;;13.25;11.50;;;;;;;;4963447;28;8847;-86
2021/06/24 04:03:15;;;;;;;;;11.75;9.75;;;;;;;;4969269;28;8881;-82
2021/06/24 04:05:44;;;;;;;;;11.00;11.00;;;;;;;;4969544;28;8869;-84
2021/06/24 04:08:11;;;;;;;;;11.00;11.00;;;;;;;;4968225;28;8884;-82
2021/06/24 04:10:39;;;;;;;;;11.00;10.25;;;;;;;;4970806;28;8855;-81
2021/06/24 04:13:07;;;;;;;;;11.75;10.50;;;;;;;;4971433;28;8865;-87
2021/06/24 04:15:35;;;;;;;;;8.75;7.00;;;;;;;;4963740;28;8858;-85
2021/06/24 04:18:05;;;;;;;;;9.50;7.75;;;;;;;;4970963;28;8893;-86
2021/06/24 04:20:33;;;;;;;;;13.00;11.00;;;;;;;;4967305;28;8903;-90
2021/06/24 04:23:01;;;;;;;;;10.50;10.50;;;;;;;;4963378;28;8980;-87
2021/06/24 04:25:29;;;;;;;;;9.25;6.00;;;;;;;;4965272;28;8945;-88
2021/06/24 04:27:58;;;;;;;;;10.00;10.00;;;;;;;;4965925;28;8996;-87
2021/06/24 04:30:27;;;;;;;;;10.00;10.00;;;;;;;;4965330;28;8941;-86
2021/06/24 04:32:54;;;;;;;;;12.75;11.50;;;;;;;;4967656;28;9143;-87
2021/06/24 04:35:23;;;;;;;;;10.33;10.33;;;;;;;;4965804;28;8907;-92
2021/06/24 04:37:51;;;;;;;;;11.67;11.67;;;;;;;;4946509;28;9077;-88
2021/06/24 04:40:18;;;;;;;;;10.00;9.67;;;;;;;;4946053;28;8972;-91
2021/06/24 04:42:46;;;;;;;;;11.33;10.00;;;;;;;;4947443;28;9170;-84
2021/06/24 04:45:14;;;;;;;;;15.67;13.00;;;;;;;;4946060;28;9157;-91
2021/06/24 04:47:43;;;;;;;;;9.00;9.00;;;;;;;;4946198;28;8984;-92
2021/06/24 04:50:12;;;;;;;;;9.00;9.00;;;;;;;;4946842;28;8942;-91
2021/06/24 04:52:42;;;;;;;;;12.67;12.67;;;;;;;;4928876;28;9004;-93
2021/06/24 04:55:10;;;;;;;;;10.67;10.00;;;;;;;;4947427;28;8983;-93
2021/06/24 04:57:38;;;;;;;;;10.33;10.33;;;;;;;;4959474;28;9024;-83
2021/06/24 05:00:06;;;;;;;;;12.33;11.67;;;;;;;;4945291;28;9684;-90
2021/06/24 05:02:33;;;;;;;;;12.67;12.33;;;;;;;;4946284;28;9010;-90
2021/06/24 05:05:02;;;;;;;;;12.67;12.67;;;;;;;;4944375;28;9005;-94
2021/06/24 05:07:29;;;;;;;;;13.33;12.00;;;;;;;;4947815;28;9053;-84
2021/06/24 05:09:58;;;;;;;;;11.00;11.00;;;;;;;;4947486;28;9779;-95
2021/06/24 05:12:26;;;;;;;;;10.00;10.00;;;;;;;;4947232;28;9089;-82
2021/06/24 05:14:53;;;;;;;;;12.33;12.33;;;;;;;;4946958;28;9152;-90
2021/06/24 05:17:20;;;;;;;;;11.33;10.33;;;;;;;;4952014;28;9043;-94
2021/06/24 05:19:48;;;;;;;;;11.33;11.33;;;;;;;;4947240;28;9124;-92
2021/06/24 05:22:16;;;;;;;;;11.25;9.25;;;;;;;;4947842;28;9125;-82
2021/06/24 05:24:45;;;;;;;;;11.00;11.00;;;;;;;;4938751;28;8948;-88
2021/06/24 05:27:13;;;;;;;;;9.00;9.00;;;;;;;;4943976;28;9065;-85
2021/06/24 05:29:41;;;;;;;;;11.00;9.00;;;;;;;;4944860;28;8890;-90
2021/06/24 05:32:08;;;;;;;;;12.33;11.00;;;;;;;;4943340;28;8938;-88
2021/06/24 05:34:36;;;;;;;;;10.33;10.33;;;;;;;;4941037;28;8968;-87
2021/06/24 05:37:03;;;;;;;;;12.00;12.00;;;;;;;;4956466;28;9771;-85
2021/06/24 05:39:31;;;;;;;;;6.00;6.00;;;;;;;;4965031;28;8959;-84
2021/06/24 05:41:58;;;;;;;;;14.25;12.25;;;;;;;;4964786;28;8874;-86
2021/06/24 05:44:28;;;;;;;;;11.00;9.00;;;;;;;;4966316;28;8881;-84
2021/06/24 05:46:56;;;;;;;;;9.00;9.00;;;;;;;;4965860;28;8960;-86
2021/06/24 05:49:23;;;;;;;;;12.00;12.00;;;;;;;;4965867;28;9053;-86
2021/06/24 05:51:51;;;;;;;;;11.50;11.50;;;;;;;;4966179;28;8893;-84
2021/06/24 05:54:18;;;;;;;;;11.75;11.75;;;;;;;;4964873;28;8905;-84
2021/06/24 05:56:46;;;;;;;;;11.50;11.50;;;;;;;;4965998;28;9628;-83
2021/06/24 05:59:13;;;;;;;;;12.33;10.67;;;;;;;;4963346;28;8904;-88
2021/06/24 06:01:47;;;;;;;;;11.00;11.00;;;;;;;;4963522;28;9000;-87
2021/06/24 06:04:15;;;;;;;;;8.75;8.25;;;;;;;;4960038;28;9042;-87
2021/06/24 06:06:42;;;;;;;;;11.67;10.00;;;;;;;;4963203;28;8959;-81
2021/06/24 06:09:09;;;;;;;;;9.33;9.33;;;;;;;;4959661;28;8996;-85
2021/06/24 06:11:37;;;;;;;;;11.50;10.50;;;;;;;;4963664;28;9085;-87
2021/06/24 06:14:04;;;;;;;;;13.00;11.50;;;;;;;;4965821;28;8885;-87
2021/06/24 06:16:32;;;;;;;;;8.50;8.50;;;;;;;;4963740;28;9001;-87
2021/06/24 06:19:01;;;;;;;;;11.25;11.00;;;;;;;;4958624;28;9004;-85
2021/06/24 06:21:30;;;;;;;;;11.75;11.25;;;;;;;;4958084;28;8907;-84
2021/06/24 06:23:58;;;;;;;;;11.50;10.25;;;;;;;;4960726;28;8881;-77
2021/06/24 06:26:25;;;;;;;;;11.00;11.00;;;;;;;;4961169;28;8861;-77
2021/06/24 06:28:54;;;;;;;;;10.00;10.00;;;;;;;;4959865;28;8962;-80
2021/06/24 06:31:24;;;;;;;;;14.00;11.67;;;;;;;;4959236;28;8910;-78
2021/06/24 06:33:52;;;;;;;;;7.00;7.00;;;;;;;;4961357;28;8989;-77
2021/06/24 06:36:20;;;;;;;;;9.75;9.75;;;;;;;;4962607;28;8869;-78
2021/06/24 06:38:48;;;;;;;;;11.67;8.67;;;;;;;;4962487;28;8880;-79
2021/06/24 06:41:15;;;;;;;;;7.00;7.00;;;;;;;;4960388;28;8954;-79
2021/06/24 06:43:42;;;;;;;;;12.75;11.75;;;;;;;;4964011;28;8888;-80
2021/06/24 06:46:10;;;;;;;;;8.25;8.25;;;;;;;;4963430;28;9686;-79
2021/06/24 06:48:37;;;;;;;;;9.50;9.50;;;;;;;;4968175;28;8984;-80
2021/06/24 06:51:06;;;;;;;;;14.25;12.50;;;;;;;;4966907;28;8877;-78
2021/06/24 06:53:35;;;;;;;;;11.00;11.00;;;;;;;;4967127;28;8896;-79
2021/06/24 06:56:02;;;;;;;;;12.00;10.50;;;;;;;;4968115;28;8984;-78
2021/06/24 06:58:29;;;;;;;;;8.75;7.00;;;;;;;;4963343;28;8889;-78
2021/06/24 07:00:57;;;;;;;;;11.50;11.50;;;;;;;;4963366;28;8829;-78
2021/06/24 07:03:24;;;;;;;;;11.25;11.00;;;;;;;;4969021;28;9705;-78
2021/06/24 07:05:51;;;;;;;;;12.25;10.25;;;;;;;;4967364;28;8999;-78
2021/06/24 07:08:19;;;;;;;;;11.75;11.50;;;;;;;;4965549;28;9575;-77
2021/06/24 07:10:47;;;;;;;;;12.75;12.50;;;;;;;;4963656;28;8994;-76
2021/06/24 07:13:15;;;;;;;;;13.00;11.50;;;;;;;;4965134;28;9794;-79
2021/06/24 07:15:42;;;;;;;;;8.75;7.00;;;;;;;;4963044;28;8889;-80
2021/06/24 07:18:12;;;;;;;;;12.00;11.00;;;;;;;;4965378;28;8951;-82
2021/06/24 07:20:41;;;;;;;;;7.00;7.00;;;;;;;;4965925;28;8873;-79
2021/06/24 07:23:08;;;;;;;;;13.50;11.75;;;;;;;;4968302;28;8873;-79
2021/06/24 07:25:35;;;;;;;;;13.00;12.50;;;;;;;;4966148;28;8917;-79
2021/06/24 07:28:04;;;;;;;;;11.50;11.50;;;;;;;;4966806;28;9012;-80
2021/06/24 07:30:32;;;;;;;;;11.00;11.00;;;;;;;;4966767;28;8820;-80
2021/06/24 07:32:59;;;;;;;;;10.75;10.75;;;;;;;;4969241;28;8893;-79
2021/06/24 07:35:26;;;;;;;;;12.50;12.50;;;;;;;;4966514;28;8980;-81
2021/06/24 07:37:54;;;;;;;;;10.75;10.75;;;;;;;;4964714;28;8887;-79
2021/06/24 07:40:21;;;;;;;;;11.50;10.25;;;;;;;;4966503;28;8870;-79
2021/06/24 07:42:49;;;;;;;;;11.00;11.00;;;;;;;;4964107;28;8878;-79
2021/06/24 07:45:17;;;;;;;;;14.00;11.25;;;;;;;;4964851;28;8915;-77
2021/06/24 07:47:44;;;;;;;;;16.75;11.75;;;;;;;;4965379;28;9673;-78
2021/06/24 07:50:12;;;;;;;;;11.00;11.00;;;;;;;;4966277;28;8980;-78
2021/06/24 07:52:39;;;;;;;;;9.00;9.00;;;;;;;;4964993;28;8870;-81
2021/06/24 07:55:08;;;;;;;;;18.00;11.75;;;;;;;;4965024;28;8881;-76
2021/06/24 07:57:35;;;;;;;;;15.75;12.75;;;;;;;;4962685;28;9647;-75
2021/06/24 08:00:04;;;;;;;;;11.75;11.50;;;;;;;;4963603;28;8960;-79
2021/06/24 08:02:32;;;;;;;;;11.50;11.50;;;;;;;;4958468;28;8826;-77
2021/06/24 08:05:00;;;;;;;;;12.50;11.00;;;;;;;;4961609;28;8867;-80
2021/06/24 08:07:27;;;;;;;;;9.00;9.00;;;;;;;;4966343;28;8901;-78
2021/06/24 08:09:57;;;;;;;;;11.00;11.00;;;;;;;;4965233;28;8869;-78
2021/06/24 08:12:24;;;;;;;;;14.75;12.25;;;;;;;;4961848;28;8893;-80
2021/06/24 08:14:52;;;;;;;;;10.50;8.00;;;;;;;;4966485;28;8927;-78
2021/06/24 08:17:19;;;;;;;;;12.00;9.25;;;;;;;;4963795;28;9031;-79
2021/06/24 08:19:47;;;;;;;;;8.25;8.25;;;;;;;;4962894;28;8878;-78
2021/06/24 08:22:15;;;;;;;;;13.75;10.75;;;;;;;;4963874;28;8881;-78
2021/06/24 08:24:43;;;;;;;;;11.25;11.25;;;;;;;;4965499;28;8897;-78
2021/06/24 08:27:10;;;;;;;;;11.75;11.75;;;;;;;;4965205;28;8911;-80
2021/06/24 08:29:37;;;;;;;;;10.50;10.50;;;;;;;;4965670;28;8878;-79
2021/06/24 08:32:05;;;;;;;;;16.00;15.00;;;;;;;;4963105;28;8846;-80
2021/06/24 08:34:33;;;;;;;;;11.25;10.50;;;;;;;;4962754;28;8857;-80
2021/06/24 08:37:02;;;;;;;;;10.75;10.75;;;;;;;;4963073;28;8893;-80
2021/06/24 08:39:29;;;;;;;;;12.50;8.00;;;;;;;;4963048;28;8881;-80
2021/06/24 08:41:57;;;;;;;;;12.75;9.75;;;;;;;;4963856;28;8893;-79
2021/06/24 08:44:24;;;;;;;;;13.25;12.50;;;;;;;;4963030;28;8893;-80
2021/06/24 08:46:52;;;;;;;;;12.25;8.50;;;;;;;;4965430;28;8869;-80
2021/06/24 08:49:24;;;;;;;;;12.75;11.00;;;;;;;;4964215;28;8881;-77
2021/06/24 08:51:52;;;;;;;;;10.75;10.75;;;;;;;;4961939;28;8866;-79
2021/06/24 08:54:21;;;;;;;;;8.50;8.50;;;;;;;;4963297;28;8881;-78
2021/06/24 08:56:48;;;;;;;;;10.25;10.25;;;;;;;;4963360;28;9012;-77
2021/06/24 08:59:16;;;;;;;;;11.50;11.50;;;;;;;;4963722;28;8887;-80
2021/06/24 09:01:51;;;;;;;;;12.25;11.00;;;;;;;;4961007;28;8832;-80
2021/06/24 09:04:20;;;;;;;;;13.00;9.75;;;;;;;;4963838;28;8869;-81
2021/06/24 09:06:48;;;;;;;;;6.75;6.00;;;;;;;;4964343;28;9643;-77
2021/06/24 09:09:27;;;;;;;;;15.25;15.25;;;;;;;;4962727;28;8963;-77
2021/06/24 09:12:06;;;;;;;;;15.00;13.50;;;;;;;;4963156;28;8893;-79
2021/06/24 09:14:42;;;;;;;;;9.25;9.25;;;;;;;;4960527;28;8857;-77
2021/06/24 09:17:11;;;;;;;;;12.75;12.25;;;;;;;;4963277;28;8919;-80
2021/06/24 09:19:40;;;;;;;;;10.25;10.25;;;;;;;;4962066;28;8873;-78
2021/06/24 09:22:10;;;;;;;;;9.50;7.50;;;;;;;;4962872;28;9008;-78
2021/06/24 09:24:40;;;;;;;;;14.75;11.25;;;;;;;;4961836;28;8909;-78
2021/06/24 09:27:24;;;;;;;;;10.25;10.25;;;;;;;;4962443;28;8905;-77
2021/06/24 09:29:53;;;;;;;;;13.50;13.50;;;;;;;;4963155;28;8881;-81
2021/06/24 09:32:31;;;;;;;;;12.25;12.25;;;;;;;;4963619;28;8984;-82
2021/06/24 09:35:01;;;;;;;;;12.50;10.50;;;;;;;;4962774;28;8923;-82
2021/06/24 09:37:28;;;;;;;;;10.25;10.25;;;;;;;;4962044;28;9691;-81
2021/06/24 09:39:57;;;;;;;;;18.25;16.75;;;;;;;;4963959;28;8919;-82
2021/06/24 09:42:25;;;;;;;;;14.75;14.75;;;;;;;;4965448;28;8877;-82
2021/06/24 09:44:52;;;;;;;;;12.00;10.75;;;;;;;;4962395;28;8931;-81
2021/06/24 09:47:23;;;;;;;;;15.00;14.75;;;;;;;;4965070;28;8877;-83
2021/06/24 09:49:59;;;;;;;;;16.75;14.75;;;;;;;;4964400;28;8873;-81
2021/06/24 09:52:26;;;;;;;;;14.75;12.25;;;;;;;;4964922;28;8877;-82
2021/06/24 09:55:06;;;;;;;;;12.75;12.75;;;;;;;;4962168;28;8996;-81
2021/06/24 09:57:34;;;;;;;;;19.75;14.25;;;;;;;;4963962;28;8869;-81
2021/06/24 10:00:20;;;;;;;;;13.75;10.50;;;;;;;;4964167;28;8897;-81
2021/06/24 10:03:07;;;;;;;;;17.25;16.25;;;;;;;;4954469;28;8826;-79
2021/06/24 10:05:35;;;;;;;;;13.50;13.50;;;;;;;;4963471;28;8884;-80
2021/06/24 10:08:03;;;;;;;;;15.75;15.75;;;;;;;;4964429;28;8977;-80
2021/06/24 10:10:32;;;;;;;;;17.50;15.50;;;;;;;;4963279;28;8861;-81
2021/06/24 10:12:59;;;;;;;;;21.75;21.75;;;;;;;;4965474;28;8905;-80
2021/06/24 10:15:28;;;;;;;;;18.50;18.50;;;;;;;;4962190;28;8881;-80
2021/06/24 10:17:56;;;;;;;;;15.25;15.25;;;;;;;;4967122;28;8885;-79
2021/06/24 10:20:25;;;;;;;;;20.00;13.75;;;;;;;;4968543;28;8876;-81
2021/06/24 10:22:58;;;;;;;;;16.75;14.75;;;;;;;;4968174;28;9016;-80
2021/06/24 10:25:25;;;;;;;;;47.25;39.75;;;;;;;;4967974;28;8925;-79
2021/06/24 10:27:57;;;;;;;;;28.25;27.25;;;;;;;;4962942;28;9003;-81
2021/06/24 10:30:26;;;;;;;;;28.25;25.25;;;;;;;;4961313;28;8878;-80
2021/06/24 10:33:01;;;;;;;;;26.25;23.00;;;;;;;;4965877;28;8900;-79
2021/06/24 10:35:31;;;;;;;;;25.25;23.75;;;;;;;;4965219;28;9717;-80
2021/06/24 10:37:59;;;;;;;;;29.75;27.75;;;;;;;;4969252;28;8907;-79
2021/06/24 10:40:30;;;;;;;;;23.75;23.25;;;;;;;;4964526;28;8887;-79
2021/06/24 10:43:00;;;;;;;;;32.25;26.25;;;;;;;;4959581;28;9723;-77
2021/06/24 10:45:28;;;;;;;;;23.00;22.00;;;;;;;;4963222;28;8901;-82
2021/06/24 10:47:56;;;;;;;;;30.00;28.00;;;;;;;;4967859;28;8965;-83
2021/06/24 10:50:44;;;;;;;;;39.50;35.25;;;;;;;;4967542;28;11267;-85
2021/06/24 10:53:37;;;;;;;;;41.50;31.75;;;;;;;;4965370;28;8884;-84
2021/06/24 10:56:31;;;;;;;;;26.67;25.33;;;;;;;;4947400;28;8901;-78
2021/06/24 10:59:01;;;;;;;;;24.75;22.75;;;;;;;;4964068;28;8927;-81
2021/06/24 11:01:46;;;;;;;;;29.00;25.50;;;;;;;;4965476;28;8932;-79
2021/06/24 11:04:34;;;;;;;;;30.25;28.75;;;;;;;;4963662;28;8944;-81
2021/06/24 11:07:21;;;;;;;;;25.50;24.25;;;;;;;;4963671;28;8886;-79
2021/06/24 11:10:23;;;;;;;;;32.50;28.25;;;;;;;;4951734;28;9649;-79
2021/06/24 11:12:58;;;;;;;;;30.75;30.25;;;;;;;;4960994;28;8904;-78
2021/06/24 11:16:00;;;;;;;;;19.75;18.25;;;;;;;;4961387;28;9414;-81
2021/06/24 11:18:57;;;;;;;;;17.50;17.50;;;;;;;;4905857;29;8906;-80
2021/06/24 11:21:54;;;;;;;;;20.00;17.80;;;;;;;;4901699;29;8894;-80
2021/06/24 11:24:25;;;;;;;;;18.00;15.80;;;;;;;;4955532;28;9694;-83
2021/06/24 11:26:54;;;;;;;;;17.60;15.60;;;;;;;;4966077;28;8897;-82
2021/06/24 11:32:29;;;;;;;;;16.00;15.60;;;;;;;;4960471;28;8849;-84
2021/06/24 11:35:02;;;;;;;;;12.60;12.60;;;;;;;;4964450;28;8881;-81
2021/06/24 11:37:30;;;;;;;;;16.40;14.40;;;;;;;;4963222;28;8869;-78
2021/06/24 11:40:00;;;;;;;;;11.60;10.20;;;;;;;;4962310;28;8889;-80
2021/06/24 11:42:32;;;;;;;;;10.40;9.00;;;;;;;;4966573;28;8895;-80
2021/06/24 11:45:00;;;;;;;;;16.20;12.80;;;;;;;;4949115;28;9695;-87
2021/06/24 11:47:32;;;;;;;;;12.00;12.00;;;;;;;;4966883;28;9632;-84
2021/06/24 12:04:19;;;;;;;;;7.00;7.00;;;;;;;;4967294;28;8868;-87
2021/06/24 12:06:52;;;;;;;;;20.80;14.40;;;;;;;;4967705;28;8904;-85
2021/06/24 12:09:22;;;;;;;;;12.60;11.60;;;;;;;;4966870;28;8888;-86
2021/06/24 12:11:52;;;;;;;;;12.40;11.00;;;;;;;;4967316;28;8975;-86
2021/06/24 12:14:22;;;;;;;;;18.60;15.80;;;;;;;;4967701;28;10585;-86
2021/06/24 12:17:14;;;;;;;;;11.80;10.40;;;;;;;;4966882;28;8927;-86
2021/06/24 12:19:45;;;;;;;;;17.20;13.20;;;;;;;;4967297;28;8992;-85
2021/06/24 12:22:14;;;;;;;;;13.40;13.40;;;;;;;;4970007;28;9000;-92
2021/06/24 12:24:42;;;;;;;;;10.00;10.00;;;;;;;;4970009;28;9011;-95
2021/06/24 12:27:20;;;;;;;;;11.00;8.60;;;;;;;;4972984;28;8885;-94
2021/06/24 12:29:49;;;;;;;;;8.00;8.00;;;;;;;;4970123;28;8897;-95
2021/06/24 12:32:18;;;;;;;;;8.00;8.00;;;;;;;;4971204;28;8956;-91
2021/06/24 12:34:48;;;;;;;;;9.40;8.40;;;;;;;;4966488;28;8907;-89
2021/06/24 12:37:29;;;;;;;;;7.20;7.00;;;;;;;;4955554;28;8906;-91
2021/06/24 12:39:57;;;;;;;;;7.20;7.20;;;;;;;;4961577;28;8992;-91
2021/06/24 12:42:25;;;;;;;;;9.20;7.80;;;;;;;;4966729;28;8895;-87
2021/06/24 12:44:52;;;;;;;;;10.40;9.00;;;;;;;;4958951;28;8892;-90
2021/06/24 12:47:38;;;;;;;;;7.40;7.40;;;;;;;;4964759;28;8873;-86
2021/06/24 12:50:31;;;;;;;;;7.20;6.60;;;;;;;;4967854;28;8995;-90
2021/06/24 12:52:59;;;;;;;;;7.40;6.80;;;;;;;;4964682;28;8884;-89
2021/06/24 12:55:44;;;;;;;;;8.20;6.00;;;;;;;;4961357;28;8896;-88
2021/06/24 12:58:14;;;;;;;;;4.00;2.80;;;;;;;;4970482;28;8978;-88
2021/06/24 13:00:50;;;;;;;;;7.80;7.00;;;;;;;;4968398;28;8992;-90
2021/06/24 13:03:17;;;;;;;;;7.60;7.60;;;;;;;;4967562;28;8881;-90
2021/06/24 13:05:46;;;;;;;;;7.20;7.20;;;;;;;;4966973;28;8877;-90
2021/06/24 13:08:14;;;;;;;;;6.80;6.80;;;;;;;;4966733;28;8880;-89
2021/06/24 13:10:46;;;;;;;;;7.00;7.00;;;;;;;;4967654;28;8888;-90
2021/06/24 13:13:28;;;;;;;;;4.20;4.20;;;;;;;;4966323;28;9011;-87
2021/06/24 13:15:55;;;;;;;;;8.80;6.00;;;;;;;;4966019;28;8881;-88
2021/06/24 13:18:23;;;;;;;;;5.80;5.80;;;;;;;;4966968;28;8881;-88
2021/06/24 13:21:00;;;;;;;;;6.00;6.00;;;;;;;;4967097;28;9035;-84
2021/06/24 13:23:35;;;;;;;;;7.60;6.00;;;;;;;;4965762;28;8880;-91
2021/06/24 13:26:17;;;;;;;;;6.60;5.20;;;;;;;;4960415;28;8896;-90
2021/06/24 13:28:45;;;;;;;;;4.40;4.40;;;;;;;;4953393;28;8892;-90
2021/06/24 13:31:13;;;;;;;;;5.60;5.60;;;;;;;;4965000;28;8849;-90
2021/06/24 13:33:41;;;;;;;;;6.40;6.40;;;;;;;;4965988;28;8897;-89
2021/06/24 13:36:27;;;;;;;;;5.20;5.20;;;;;;;;4966236;28;8887;-89
2021/06/24 13:39:00;;;;;;;;;5.00;5.00;;;;;;;;4966388;28;8887;-90
2021/06/24 13:41:30;;;;;;;;;5.00;5.00;;;;;;;;4966050;28;8893;-90
2021/06/24 13:44:12;;;;;;;;;7.00;7.00;;;;;;;;4965688;28;8869;-90
2021/06/24 13:46:41;;;;;;;;;5.00;5.00;;;;;;;;4965892;28;8869;-89
2021/06/24 13:49:10;;;;;;;;;6.00;4.80;;;;;;;;4965413;28;8849;-91
2021/06/24 13:51:45;;;;;;;;;4.00;4.00;;;;;;;;4965385;28;8885;-89
2021/06/24 13:54:12;;;;;;;;;6.20;5.20;;;;;;;;4965715;28;8880;-90
2021/06/24 13:56:39;;;;;;;;;6.00;5.00;;;;;;;;4963934;28;8881;-89
2021/06/24 13:59:07;;;;;;;;;5.20;5.20;;;;;;;;4966868;28;8913;-91
2021/06/24 14:01:34;;;;;;;;;8.00;8.00;;;;;;;;4961136;28;9580;-89
2021/06/24 14:04:02;;;;;;;;;6.20;5.80;;;;;;;;4967316;28;9038;-83
2021/06/24 14:06:36;;;;;;;;;6.20;6.20;;;;;;;;4965693;28;8873;-95
2021/06/24 14:09:06;;;;;;;;;6.00;6.00;;;;;;;;4964056;28;8858;-93
2021/06/24 14:11:34;;;;;;;;;6.60;4.40;;;;;;;;4966025;28;8947;-92
2021/06/24 14:14:03;;;;;;;;;5.40;5.40;;;;;;;;4963678;28;8901;-93
2021/06/24 14:16:30;;;;;;;;;6.40;6.40;;;;;;;;4965764;28;8881;-89
2021/06/24 14:18:58;;;;;;;;;5.00;5.00;;;;;;;;4963445;28;8984;-92
2021/06/24 14:21:26;;;;;;;;;5.60;5.60;;;;;;;;4965223;28;8892;-92
2021/06/24 14:23:55;;;;;;;;;5.80;4.80;;;;;;;;4965079;28;8845;-83
2021/06/24 14:26:25;;;;;;;;;5.20;5.20;;;;;;;;4959807;28;8902;-82
2021/06/24 14:28:52;;;;;;;;;7.60;6.40;;;;;;;;4959386;28;8913;-80
2021/06/24 14:31:20;;;;;;;;;5.60;5.60;;;;;;;;4960268;28;8864;-81
2021/06/24 14:33:47;;;;;;;;;5.00;5.00;;;;;;;;4961572;28;8869;-85
2021/06/24 14:36:16;;;;;;;;;6.40;6.40;;;;;;;;4961282;28;8866;-83
2021/06/24 14:38:44;;;;;;;;;6.40;6.40;;;;;;;;4963285;28;8889;-85
2021/06/24 14:41:12;;;;;;;;;7.20;6.00;;;;;;;;4963379;28;9070;-86
2021/06/24 14:43:44;;;;;;;;;5.80;5.80;;;;;;;;4959786;28;8879;-83
2021/06/24 14:46:12;;;;;;;;;4.80;4.80;;;;;;;;4963473;28;8873;-84
2021/06/24 14:48:41;;;;;;;;;7.80;6.60;;;;;;;;4963800;28;8980;-83
2021/06/24 14:51:08;;;;;;;;;9.60;9.60;;;;;;;;4963994;28;8873;-87
2021/06/24 14:53:36;;;;;;;;;5.60;5.60;;;;;;;;4962317;28;8882;-84
2021/06/24 14:56:04;;;;;;;;;5.20;5.20;;;;;;;;4963684;28;8931;-86
2021/06/24 14:58:31;;;;;;;;;5.20;5.20;;;;;;;;4964434;28;8857;-84
2021/06/24 15:01:00;;;;;;;;;5.00;5.00;;;;;;;;4958829;28;8810;-88
2021/06/24 15:03:27;;;;;;;;;3.80;3.80;;;;;;;;4965084;28;9641;-87
2021/06/24 15:05:55;;;;;;;;;4.60;4.60;;;;;;;;4962651;28;8877;-85
2021/06/24 15:08:22;;;;;;;;;5.40;5.40;;;;;;;;4967933;28;8988;-87
2021/06/24 15:10:50;;;;;;;;;4.80;4.80;;;;;;;;4965546;28;8923;-83
2021/06/24 15:13:17;;;;;;;;;3.40;3.40;;;;;;;;4966094;28;8893;-85